createdAt,value
2023-04-17T00:00:01.694Z,31.93
2023-04-17T00:01:23.775Z,32.73
2023-04-17T00:02:46.517Z,30.60
2023-04-17T00:04:13.061Z,26.60
2023-04-17T00:05:35.319Z,29.20
2023-04-17T00:06:59.358Z,25.73
2023-04-17T00:08:21.469Z,30.63
2023-04-17T00:09:43.450Z,29.47
2023-04-17T00:11:08.657Z,24.90
2023-04-17T00:12:31.211Z,28.50
2023-04-17T00:13:53.269Z,29.90
2023-04-17T00:15:15.312Z,27.60
2023-04-17T00:16:37.817Z,32.13
2023-04-17T00:18:00.110Z,26.27
2023-04-17T00:19:22.387Z,25.33
2023-04-17T00:20:44.512Z,28.77
2023-04-17T00:22:06.651Z,31.10
2023-04-17T00:23:28.694Z,23.90
2023-04-17T00:24:50.816Z,31.87
2023-04-17T00:26:13.050Z,31.97
2023-04-17T00:27:35.215Z,29.60
2023-04-17T00:28:57.298Z,34.37
2023-04-17T00:30:19.460Z,32.40
2023-04-17T00:31:41.574Z,27.80
2023-04-17T00:33:03.686Z,28.30
2023-04-17T00:34:25.799Z,29.83
2023-04-17T00:35:47.977Z,31.87
2023-04-17T00:37:10.041Z,25.03
2023-04-17T00:38:32.111Z,27.87
2023-04-17T00:39:54.132Z,29.17
2023-04-17T00:41:16.334Z,26.87
2023-04-17T00:42:38.346Z,31.23
2023-04-17T00:44:00.404Z,30.87
2023-04-17T00:45:22.567Z,33.53
2023-04-17T00:46:44.913Z,32.67
2023-04-17T00:48:08.257Z,34.00
2023-04-17T00:49:30.645Z,25.83
2023-04-17T00:50:53.744Z,31.90
2023-04-17T00:52:24.636Z,26.17
2023-04-17T00:53:47.397Z,24.27
2023-04-17T00:55:10.259Z,29.73
2023-04-17T00:56:32.472Z,28.00
2023-04-17T00:57:56.212Z,26.93
2023-04-17T00:59:18.641Z,26.40
2023-04-17T01:00:40.732Z,25.53
2023-04-17T01:02:02.941Z,30.97
2023-04-17T01:03:25.174Z,29.40
2023-04-17T01:04:47.361Z,26.10
2023-04-17T01:06:09.895Z,29.90
2023-04-17T01:07:32.054Z,30.50
2023-04-17T01:08:54.775Z,27.70
2023-04-17T01:10:16.889Z,28.77
2023-04-17T01:11:39.485Z,25.17
2023-04-17T01:13:03.425Z,28.80
2023-04-17T01:14:25.680Z,30.20
2023-04-17T01:15:47.669Z,35.30
2023-04-17T01:17:10.361Z,25.13
2023-04-17T01:18:32.532Z,28.87
2023-04-17T01:19:55.505Z,23.30
2023-04-17T01:21:17.890Z,27.43
2023-04-17T01:22:39.921Z,26.33
2023-04-17T01:24:05.132Z,23.50
2023-04-17T01:25:28.410Z,23.10
2023-04-17T01:26:50.484Z,22.67
2023-04-17T01:28:12.523Z,28.77
2023-04-17T01:29:35.294Z,26.57
2023-04-17T01:30:57.512Z,29.43
2023-04-17T01:32:19.659Z,26.83
2023-04-17T01:33:41.832Z,29.90
2023-04-17T01:35:04.265Z,24.70
2023-04-17T01:36:27.655Z,23.07
2023-04-17T01:37:49.918Z,28.57
2023-04-17T01:39:12.326Z,21.57
2023-04-17T01:40:34.568Z,25.70
2023-04-17T01:41:56.701Z,25.10
2023-04-17T01:43:18.794Z,25.30
2023-04-17T01:44:41.007Z,26.20
2023-04-17T01:46:03.138Z,28.50
2023-04-17T01:47:25.253Z,26.00
2023-04-17T01:48:47.445Z,24.50
2023-04-17T01:50:09.926Z,30.77
2023-04-17T01:51:31.968Z,28.00
2023-04-17T01:52:53.977Z,26.00
2023-04-17T01:54:16.079Z,25.87
2023-04-17T01:55:38.072Z,29.90
2023-04-17T01:57:00.135Z,26.47
2023-04-17T01:58:22.245Z,26.00
2023-04-17T01:59:44.675Z,30.70
2023-04-17T02:01:06.829Z,23.90
2023-04-17T02:02:28.952Z,23.70
2023-04-17T02:03:51.287Z,25.80
2023-04-17T02:05:13.479Z,29.47
2023-04-17T02:06:35.951Z,30.43
2023-04-17T02:07:58.017Z,25.70
2023-04-17T02:09:20.162Z,31.33
2023-04-17T02:10:43.057Z,30.73
2023-04-17T02:12:05.773Z,27.60
2023-04-17T02:13:27.919Z,25.57
2023-04-17T02:14:50.113Z,27.93
2023-04-17T02:16:12.702Z,32.53
2023-04-17T02:17:34.979Z,24.00
2023-04-17T02:18:57.085Z,24.63
2023-04-17T02:20:19.268Z,27.20
2023-04-17T02:21:42.176Z,29.50
2023-04-17T02:23:05.968Z,28.30
2023-04-17T02:24:28.182Z,25.10
2023-04-17T02:25:50.227Z,30.50
2023-04-17T02:27:12.269Z,28.03
2023-04-17T02:28:34.428Z,30.83
2023-04-17T02:29:56.549Z,31.40
2023-04-17T02:31:18.701Z,31.87
2023-04-17T02:32:40.962Z,29.57
2023-04-17T02:34:03.343Z,27.20
2023-04-17T02:35:29.209Z,32.20
2023-04-17T02:36:52.468Z,29.87
2023-04-17T02:38:14.655Z,29.60
2023-04-17T02:39:36.951Z,26.30
2023-04-17T02:40:59.740Z,31.87
2023-04-17T02:42:21.824Z,42.80
2023-04-17T02:43:44.010Z,29.23
2023-04-17T02:45:06.796Z,31.37
2023-04-17T02:46:28.962Z,27.17
2023-04-17T02:47:51.202Z,28.27
2023-04-17T02:49:13.388Z,27.73
2023-04-17T02:50:35.667Z,29.90
2023-04-17T02:51:57.924Z,30.50
2023-04-17T02:53:20.477Z,29.37
2023-04-17T02:54:42.582Z,32.63
2023-04-17T02:56:04.930Z,34.10
2023-04-17T02:57:27.125Z,30.17
2023-04-17T02:58:49.231Z,31.10
2023-04-17T03:00:14.781Z,28.10
2023-04-17T03:01:38.600Z,33.27
2023-04-17T03:03:03.171Z,32.77
2023-04-17T03:04:27.998Z,30.83
2023-04-17T03:05:50.167Z,34.33
2023-04-17T03:07:13.604Z,29.73
2023-04-17T03:08:38.657Z,30.30
2023-04-17T03:10:00.976Z,35.93
2023-04-17T03:11:23.152Z,30.17
2023-04-17T03:12:45.471Z,32.63
2023-04-17T03:14:07.605Z,31.17
2023-04-17T03:15:29.725Z,35.67
2023-04-17T03:16:51.851Z,40.30
2023-04-17T03:18:13.977Z,37.57
2023-04-17T03:19:36.057Z,33.47
2023-04-17T03:20:58.518Z,30.50
2023-04-17T03:22:20.677Z,32.60
2023-04-17T03:23:43.723Z,33.10
2023-04-17T03:25:06.334Z,36.77
2023-04-17T03:26:28.421Z,37.10
2023-04-17T03:27:50.682Z,35.53
2023-04-17T03:29:13.204Z,33.73
2023-04-17T03:30:35.583Z,35.83
2023-04-17T03:31:57.681Z,39.17
2023-04-17T03:33:19.738Z,38.30
2023-04-17T03:34:41.789Z,38.67
2023-04-17T03:36:04.143Z,36.93
2023-04-17T03:37:26.165Z,36.03
2023-04-17T03:38:48.207Z,38.63
2023-04-17T03:40:10.558Z,36.40
2023-04-17T03:41:32.741Z,35.67
2023-04-17T03:42:54.779Z,35.30
2023-04-17T03:44:17.395Z,41.40
2023-04-17T03:45:39.476Z,37.23
2023-04-17T03:47:01.620Z,39.27
2023-04-17T03:48:23.738Z,34.67
2023-04-17T03:49:45.791Z,40.93
2023-04-17T03:51:07.847Z,35.50
2023-04-17T03:52:29.887Z,35.77
2023-04-17T03:53:51.962Z,36.33
2023-04-17T03:55:14.050Z,41.17
2023-04-17T03:56:36.213Z,33.57
2023-04-17T03:57:58.291Z,35.03
2023-04-17T03:59:20.442Z,34.60
2023-04-17T04:00:42.564Z,33.27
2023-04-17T04:02:04.790Z,32.53
2023-04-17T04:03:27.290Z,31.83
2023-04-17T04:04:50.486Z,36.83
2023-04-17T04:06:12.858Z,40.00
2023-04-17T04:07:35.005Z,36.80
2023-04-17T04:08:57.284Z,36.10
2023-04-17T04:10:19.341Z,34.97
2023-04-17T04:11:41.413Z,35.37
2023-04-17T04:13:03.602Z,35.33
2023-04-17T04:14:25.686Z,31.07
2023-04-17T04:15:47.817Z,38.30
2023-04-17T04:17:09.890Z,33.73
2023-04-17T04:18:31.965Z,35.47
2023-04-17T04:19:54.003Z,34.97
2023-04-17T04:21:16.084Z,39.23
2023-04-17T04:22:38.126Z,36.60
2023-04-17T04:24:00.246Z,33.33
2023-04-17T04:25:22.292Z,35.07
2023-04-17T04:26:47.276Z,32.40
2023-04-17T04:28:10.401Z,35.43
2023-04-17T04:29:33.058Z,43.23
2023-04-17T04:30:55.321Z,36.37
2023-04-17T04:32:17.399Z,29.70
2023-04-17T04:33:39.470Z,42.40
2023-04-17T04:35:02.113Z,29.33
2023-04-17T04:36:25.083Z,35.40
2023-04-17T04:37:47.134Z,30.73
2023-04-17T04:39:09.927Z,30.60
2023-04-17T04:40:38.161Z,31.80
2023-04-17T04:42:05.865Z,29.23
2023-04-17T04:43:29.131Z,26.17
2023-04-17T04:44:51.308Z,24.00
2023-04-17T04:46:13.484Z,34.23
2023-04-17T04:47:36.450Z,31.33
2023-04-17T04:48:58.621Z,30.57
2023-04-17T04:50:21.309Z,27.90
2023-04-17T04:51:43.577Z,24.17
2023-04-17T04:53:05.741Z,27.37
2023-04-17T04:54:27.893Z,22.93
2023-04-17T04:55:50.104Z,29.60
2023-04-17T04:57:12.187Z,28.27
2023-04-17T04:58:34.288Z,27.50
2023-04-17T04:59:56.347Z,28.00
2023-04-17T05:01:18.707Z,28.33
2023-04-17T05:02:41.092Z,25.87
2023-04-17T05:04:03.838Z,36.03
2023-04-17T05:05:26.065Z,28.33
2023-04-17T05:06:48.102Z,24.77
2023-04-17T05:08:10.214Z,30.20
2023-04-17T05:09:33.281Z,27.43
2023-04-17T05:10:55.606Z,25.93
2023-04-17T05:12:17.751Z,33.37
2023-04-17T05:13:39.809Z,28.47
2023-04-17T05:15:02.021Z,22.30
2023-04-17T05:16:24.174Z,28.13
2023-04-17T05:17:46.655Z,26.07
2023-04-17T05:19:08.934Z,26.80
2023-04-17T05:20:33.159Z,32.70
2023-04-17T05:21:55.474Z,24.77
2023-04-17T05:23:21.451Z,28.00
2023-04-17T05:24:43.574Z,25.37
2023-04-17T05:26:06.011Z,23.93
2023-04-17T05:27:28.166Z,23.60
2023-04-17T05:28:50.395Z,26.10
2023-04-17T05:30:13.151Z,26.03
2023-04-17T05:31:35.412Z,26.47
2023-04-17T05:32:58.648Z,24.60
2023-04-17T05:34:20.904Z,25.97
2023-04-17T05:35:42.961Z,26.27
2023-04-17T05:37:05.527Z,27.47
2023-04-17T05:38:27.682Z,25.23
2023-04-17T05:39:49.950Z,22.77
2023-04-17T05:41:12.096Z,30.40
2023-04-17T05:42:34.910Z,29.63
2023-04-17T05:43:56.951Z,26.50
2023-04-17T05:45:19.149Z,32.00
2023-04-17T05:46:41.226Z,29.77
2023-04-17T05:48:04.724Z,27.80
2023-04-17T05:49:27.060Z,28.27
2023-04-17T05:50:49.159Z,34.63
2023-04-17T05:52:11.473Z,29.23
2023-04-17T05:53:33.690Z,26.13
2023-04-17T05:54:56.554Z,34.50
2023-04-17T05:56:18.644Z,27.10
2023-04-17T05:57:40.747Z,28.27
2023-04-17T05:59:02.763Z,24.10
2023-04-17T06:00:25.084Z,32.60
2023-04-17T06:01:47.226Z,27.80
2023-04-17T06:03:09.543Z,33.97
2023-04-17T06:04:32.077Z,25.07
2023-04-17T06:05:54.340Z,31.40
2023-04-17T06:07:16.434Z,30.93
2023-04-17T06:08:38.533Z,28.13
2023-04-17T06:10:01.648Z,26.90
2023-04-17T06:11:24.268Z,30.13
2023-04-17T06:12:46.590Z,30.07
2023-04-17T06:14:08.727Z,27.50
2023-04-17T06:15:30.857Z,26.97
2023-04-17T06:16:52.948Z,31.70
2023-04-17T06:18:16.117Z,30.00
2023-04-17T06:19:38.667Z,25.67
2023-04-17T06:21:01.177Z,30.93
2023-04-17T06:22:23.218Z,32.03
2023-04-17T06:23:45.483Z,36.63
2023-04-17T06:25:08.155Z,28.67
2023-04-17T06:26:30.188Z,36.37
2023-04-17T06:27:52.270Z,32.97
2023-04-17T06:29:15.509Z,39.17
2023-04-17T06:30:38.205Z,28.03
2023-04-17T06:32:00.335Z,30.77
2023-04-17T06:33:23.580Z,29.40
2023-04-17T06:36:14.558Z,30.43
2023-04-17T06:37:36.593Z,35.50
2023-04-17T06:38:58.631Z,36.70
2023-04-17T06:40:20.821Z,32.57
2023-04-17T06:41:42.880Z,33.23
2023-04-17T06:43:04.959Z,30.53
2023-04-17T06:44:27.079Z,34.63
2023-04-17T06:45:49.210Z,37.47
2023-04-17T06:47:11.321Z,36.77
2023-04-17T06:48:33.317Z,34.90
2023-04-17T06:49:55.409Z,35.00
2023-04-17T06:51:20.682Z,31.80
2023-04-17T06:52:43.103Z,33.63
2023-04-17T06:54:05.296Z,34.27
2023-04-17T06:55:27.656Z,32.80
2023-04-17T06:56:49.693Z,32.13
2023-04-17T06:58:11.808Z,37.83
2023-04-17T06:59:34.226Z,34.03
2023-04-17T07:00:56.699Z,32.23
2023-04-17T07:02:18.900Z,34.37
2023-04-17T07:03:43.618Z,35.50
2023-04-17T07:05:07.127Z,33.03
2023-04-17T07:06:29.363Z,36.33
2023-04-17T07:07:51.639Z,35.33
2023-04-17T07:09:13.816Z,40.33
2023-04-17T07:10:36.150Z,35.70
2023-04-17T07:11:58.219Z,34.40
2023-04-17T07:13:20.408Z,41.23
2023-04-17T07:14:42.745Z,39.73
2023-04-17T07:16:06.159Z,42.60
2023-04-17T07:17:28.587Z,32.93
2023-04-17T07:18:51.973Z,35.27
2023-04-17T07:20:14.143Z,31.30
2023-04-17T07:21:36.560Z,38.63
2023-04-17T07:22:58.673Z,33.77
2023-04-17T07:24:21.143Z,32.30
2023-04-17T07:25:43.314Z,32.20
2023-04-17T07:27:06.746Z,32.50
2023-04-17T07:28:28.803Z,31.53
2023-04-17T07:29:54.737Z,34.80
2023-04-17T07:31:17.042Z,30.70
2023-04-17T07:32:39.136Z,29.50
2023-04-17T07:34:01.229Z,35.33
2023-04-17T07:35:23.636Z,34.57
2023-04-17T07:36:54.550Z,31.03
2023-04-17T07:38:16.969Z,34.23
2023-04-17T07:39:39.043Z,35.17
2023-04-17T07:41:01.129Z,31.20
2023-04-17T07:42:23.185Z,32.60
2023-04-17T07:43:45.287Z,33.80
2023-04-17T07:45:07.956Z,28.53
2023-04-17T07:46:30.170Z,31.97
2023-04-17T07:47:53.121Z,31.73
2023-04-17T07:49:15.711Z,29.03
2023-04-17T07:50:37.965Z,31.53
2023-04-17T07:52:00.190Z,26.37
2023-04-17T07:53:25.473Z,30.87
2023-04-17T07:54:47.639Z,31.67
2023-04-17T07:56:11.639Z,33.73
2023-04-17T07:57:35.900Z,27.93
2023-04-17T07:58:58.343Z,33.23
2023-04-17T08:00:21.417Z,31.80
2023-04-17T08:01:43.901Z,31.13
2023-04-17T08:03:06.265Z,29.87
2023-04-17T08:04:28.717Z,28.73
2023-04-17T08:05:54.173Z,29.17
2023-04-17T08:07:18.273Z,26.00
2023-04-17T08:08:40.694Z,25.50
2023-04-17T08:10:03.845Z,27.40
2023-04-17T08:11:26.092Z,23.63
2023-04-17T08:12:48.983Z,25.87
2023-04-17T08:14:11.858Z,25.90
2023-04-17T08:15:34.299Z,24.80
2023-04-17T08:16:56.488Z,26.03
2023-04-17T08:18:18.640Z,25.47
2023-04-17T08:19:40.694Z,27.07
2023-04-17T08:21:04.017Z,20.77
2023-04-17T08:22:28.608Z,25.17
2023-04-17T08:23:50.961Z,23.90
2023-04-17T08:25:13.907Z,23.33
2023-04-17T08:26:35.939Z,26.40
2023-04-17T08:27:57.993Z,27.00
2023-04-17T08:29:20.019Z,27.47
2023-04-17T08:30:42.277Z,25.73
2023-04-17T08:32:13.112Z,28.07
2023-04-17T08:33:36.349Z,25.30
2023-04-17T08:34:58.660Z,23.37
2023-04-17T08:36:20.990Z,22.77
2023-04-17T08:37:46.968Z,23.47
2023-04-17T08:39:11.192Z,18.50
2023-04-17T08:40:33.650Z,20.70
2023-04-17T08:42:01.068Z,23.97
2023-04-17T08:43:26.037Z,22.43
2023-04-17T08:44:48.304Z,23.40
2023-04-17T08:46:10.921Z,19.80
2023-04-17T08:47:38.448Z,20.63
2023-04-17T08:49:02.979Z,23.70
2023-04-17T08:50:25.222Z,21.50
2023-04-17T08:51:47.297Z,19.93
2023-04-17T08:53:09.352Z,17.37
2023-04-17T08:54:36.454Z,18.67
2023-04-17T08:56:07.522Z,18.70
2023-04-17T08:57:30.870Z,16.43
2023-04-17T08:58:52.996Z,17.97
2023-04-17T09:00:23.489Z,14.97
2023-04-17T09:02:02.543Z,19.70
2023-04-17T09:03:24.914Z,21.10
2023-04-17T09:04:48.376Z,14.80
2023-04-17T09:06:11.352Z,16.10
2023-04-17T09:07:33.503Z,15.90
2023-04-17T09:09:00.299Z,17.60
2023-04-17T09:10:35.687Z,19.90
2023-04-17T09:12:11.138Z,15.20
2023-04-17T09:13:40.164Z,15.27
2023-04-17T09:15:16.555Z,12.10
2023-04-17T09:16:54.395Z,14.33
2023-04-17T09:18:32.440Z,18.30
2023-04-17T09:20:11.998Z,13.77
2023-04-17T09:21:34.130Z,15.67
2023-04-17T09:23:01.423Z,20.60
2023-04-17T09:24:34.384Z,12.03
2023-04-17T09:26:09.662Z,10.63
2023-04-17T09:27:31.941Z,11.77
2023-04-17T09:29:12.124Z,11.97
2023-04-17T09:30:38.061Z,13.63
2023-04-17T09:32:14.545Z,13.70
2023-04-17T09:33:55.122Z,10.60
2023-04-17T09:35:27.682Z,9.20
2023-04-17T09:36:54.326Z,10.47
2023-04-17T09:38:16.769Z,8.90
2023-04-17T09:39:39.945Z,11.70
2023-04-17T09:41:02.128Z,11.93
2023-04-17T09:42:24.472Z,12.03
2023-04-17T09:43:46.984Z,11.13
2023-04-17T09:45:22.278Z,10.93
2023-04-17T09:46:47.649Z,11.47
2023-04-17T09:48:11.960Z,12.80
2023-04-17T09:49:39.786Z,16.63
2023-04-17T09:51:02.301Z,9.50
2023-04-17T09:52:24.677Z,9.57
2023-04-17T09:53:46.869Z,10.33
2023-04-17T09:55:10.497Z,11.17
2023-04-17T09:56:35.481Z,10.73
2023-04-17T09:57:59.380Z,11.00
2023-04-17T09:59:23.836Z,12.73
2023-04-17T10:00:46.268Z,11.77
2023-04-17T10:02:09.724Z,8.80
2023-04-17T10:03:35.916Z,9.57
2023-04-17T10:05:00.191Z,11.30
2023-04-17T10:06:22.289Z,9.40
2023-04-17T10:07:44.778Z,11.90
2023-04-17T10:09:07.888Z,10.90
2023-04-17T10:10:33.666Z,10.07
2023-04-17T10:11:56.946Z,10.40
2023-04-17T10:13:21.120Z,11.33
2023-04-17T10:14:49.686Z,10.80
2023-04-17T10:16:11.827Z,9.00
2023-04-17T10:17:36.727Z,10.27
2023-04-17T10:19:23.848Z,10.77
2023-04-17T10:20:48.468Z,10.70
2023-04-17T10:22:18.012Z,9.97
2023-04-17T10:23:40.932Z,11.10
2023-04-17T10:25:12.579Z,9.43
2023-04-17T10:26:35.010Z,11.23
2023-04-17T10:28:01.326Z,10.00
2023-04-17T10:29:55.521Z,10.40
2023-04-17T10:31:18.041Z,13.03
2023-04-17T10:32:43.212Z,15.10
2023-04-17T10:34:05.248Z,10.53
2023-04-17T10:35:27.294Z,11.77
2023-04-17T10:36:49.629Z,9.77
2023-04-17T10:38:11.755Z,9.40
2023-04-17T10:39:56.613Z,13.90
2023-04-17T10:41:20.010Z,9.50
2023-04-17T10:42:42.294Z,11.97
2023-04-17T10:44:06.725Z,11.17
2023-04-17T10:46:05.450Z,8.70
2023-04-17T10:47:35.302Z,12.70
2023-04-17T10:48:57.471Z,11.80
2023-04-17T10:50:28.342Z,12.73
2023-04-17T10:51:52.203Z,12.47
2023-04-17T10:53:40.730Z,14.37
2023-04-17T10:55:03.607Z,10.80
2023-04-17T10:56:40.612Z,10.70
2023-04-17T10:58:12.331Z,10.10
2023-04-17T10:59:34.349Z,13.17
2023-04-17T11:00:57.285Z,11.10
2023-04-17T11:02:34.002Z,12.90
2023-04-17T11:03:56.912Z,11.67
2023-04-17T11:05:20.218Z,11.60
2023-04-17T11:06:44.182Z,12.67
2023-04-17T11:08:06.676Z,12.63
2023-04-17T11:09:29.585Z,12.60
2023-04-17T11:10:57.619Z,13.47
2023-04-17T11:12:19.692Z,12.13
2023-04-17T11:13:46.522Z,10.60
2023-04-17T11:15:09.091Z,9.50
2023-04-17T11:16:31.513Z,10.60
2023-04-17T11:17:54.485Z,10.10
2023-04-17T11:19:23.859Z,12.77
2023-04-17T11:20:46.121Z,11.67
2023-04-17T11:22:11.393Z,14.90
2023-04-17T11:23:33.984Z,13.67
2023-04-17T11:24:56.099Z,10.80
2023-04-17T11:26:19.520Z,12.57
2023-04-17T11:27:41.546Z,10.97
2023-04-17T11:29:13.370Z,13.00
2023-04-17T11:30:38.109Z,15.40
2023-04-17T11:32:01.135Z,13.60
2023-04-17T11:33:23.296Z,12.60
2023-04-17T11:34:45.461Z,12.83
2023-04-17T11:36:07.968Z,9.80
2023-04-17T11:37:30.034Z,12.00
2023-04-17T11:38:54.998Z,8.70
2023-04-17T11:40:22.710Z,10.13
2023-04-17T11:41:45.501Z,12.70
2023-04-17T11:43:08.256Z,8.90
2023-04-17T11:44:30.557Z,11.57
2023-04-17T11:45:58.099Z,10.67
2023-04-17T11:47:20.191Z,10.73
2023-04-17T11:48:42.393Z,10.70
2023-04-17T11:50:04.749Z,11.57
2023-04-17T11:51:26.790Z,11.87
2023-04-17T11:52:48.840Z,10.00
2023-04-17T11:54:29.731Z,10.23
2023-04-17T11:56:15.166Z,13.27
2023-04-17T11:57:43.518Z,12.43
2023-04-17T11:59:06.081Z,11.00
2023-04-17T12:00:32.155Z,14.10
2023-04-17T12:01:54.284Z,9.77
2023-04-17T12:03:45.314Z,12.93
2023-04-17T12:05:15.479Z,11.60
2023-04-17T12:06:38.172Z,15.60
2023-04-17T12:08:04.575Z,13.30
2023-04-17T12:09:31.554Z,12.87
2023-04-17T12:10:53.834Z,11.73
2023-04-17T12:12:16.187Z,12.87
2023-04-17T12:13:38.193Z,14.83
2023-04-17T12:15:00.963Z,16.07
2023-04-17T12:16:27.638Z,14.00
2023-04-17T12:17:49.865Z,12.27
2023-04-17T12:19:13.180Z,12.30
2023-04-17T12:20:36.427Z,14.37
2023-04-17T12:21:59.304Z,11.40
2023-04-17T12:23:21.394Z,10.90
2023-04-17T12:24:43.553Z,13.57
2023-04-17T12:26:06.023Z,11.43
2023-04-17T12:27:28.128Z,15.77
2023-04-17T12:28:50.899Z,11.70
2023-04-17T12:30:13.866Z,13.40
2023-04-17T12:31:35.958Z,11.17
2023-04-17T12:32:58.443Z,12.83
2023-04-17T12:34:20.594Z,13.60
2023-04-17T12:35:42.651Z,12.80
2023-04-17T12:37:04.697Z,11.17
2023-04-17T12:38:26.884Z,18.30
2023-04-17T12:39:48.931Z,13.53
2023-04-17T12:41:11.033Z,12.43
2023-04-17T12:42:39.454Z,11.60
2023-04-17T12:44:11.036Z,12.90
2023-04-17T12:45:33.614Z,13.57
2023-04-17T12:46:56.183Z,14.83
2023-04-17T12:48:18.320Z,12.87
2023-04-17T12:49:40.719Z,15.50
2023-04-17T12:51:02.857Z,15.20
2023-04-17T12:52:24.997Z,12.87
2023-04-17T12:53:47.741Z,13.63
2023-04-17T12:55:10.356Z,13.80
2023-04-17T12:56:32.816Z,14.80
2023-04-17T12:57:55.149Z,15.47
2023-04-17T12:59:17.248Z,15.40
2023-04-17T13:00:43.703Z,18.57
2023-04-17T13:02:06.662Z,19.27
2023-04-17T13:03:28.855Z,18.77
2023-04-17T13:04:53.490Z,17.47
2023-04-17T13:06:16.797Z,18.73
2023-04-17T13:07:38.857Z,22.60
2023-04-17T13:09:01.095Z,19.40
2023-04-17T13:10:23.292Z,25.70
2023-04-17T13:11:45.520Z,20.57
2023-04-17T13:13:08.181Z,26.17
2023-04-17T13:14:30.487Z,18.90
2023-04-17T13:15:52.876Z,21.93
2023-04-17T13:17:17.151Z,26.73
2023-04-17T13:18:39.682Z,22.43
2023-04-17T13:20:01.720Z,22.93
2023-04-17T13:21:23.866Z,21.37
2023-04-17T13:22:46.164Z,23.00
2023-04-17T13:24:14.304Z,21.60
2023-04-17T13:25:37.060Z,21.23
2023-04-17T13:26:59.402Z,24.27
2023-04-17T13:28:21.481Z,27.53
2023-04-17T13:29:43.643Z,24.23
2023-04-17T13:31:05.743Z,24.27
2023-04-17T13:32:27.840Z,24.40
2023-04-17T13:33:50.495Z,22.87
2023-04-17T13:35:13.453Z,24.33
2023-04-17T13:36:35.548Z,26.97
2023-04-17T13:38:00.888Z,27.60
2023-04-17T13:39:23.049Z,26.37
2023-04-17T13:40:45.182Z,28.10
2023-04-17T13:42:07.954Z,26.97
2023-04-17T13:43:30.079Z,24.20
2023-04-17T13:44:52.103Z,30.33
2023-04-17T13:46:16.249Z,27.73
2023-04-17T13:47:38.512Z,26.67
2023-04-17T13:49:00.713Z,28.17
2023-04-17T13:50:22.886Z,34.03
2023-04-17T13:51:44.977Z,26.83
2023-04-17T13:53:08.458Z,29.20
2023-04-17T13:54:32.036Z,28.07
2023-04-17T13:55:54.082Z,32.13
2023-04-17T13:57:18.434Z,26.20
2023-04-17T13:58:41.608Z,33.30
2023-04-17T14:00:04.060Z,25.70
2023-04-17T14:01:26.298Z,27.30
2023-04-17T14:02:48.547Z,35.27
2023-04-17T14:04:10.974Z,24.37
2023-04-17T14:05:33.510Z,29.93
2023-04-17T14:06:55.760Z,24.90
2023-04-17T14:08:17.998Z,34.10
2023-04-17T14:09:40.294Z,25.57
2023-04-17T14:11:02.602Z,28.50
2023-04-17T14:12:24.846Z,30.27
2023-04-17T14:13:46.953Z,31.93
2023-04-17T14:15:09.694Z,33.23
2023-04-17T14:16:32.255Z,30.33
2023-04-17T14:17:54.446Z,23.03
2023-04-17T14:19:17.703Z,28.47
2023-04-17T14:20:40.476Z,26.93
2023-04-17T14:22:02.551Z,23.70
2023-04-17T14:23:24.621Z,30.90
2023-04-17T14:24:46.675Z,24.90
2023-04-17T14:26:09.196Z,25.73
2023-04-17T14:27:31.420Z,21.27
2023-04-17T14:28:53.505Z,22.33
2023-04-17T14:30:15.689Z,20.97
2023-04-17T14:31:37.856Z,24.73
2023-04-17T14:33:00.027Z,21.23
2023-04-17T14:34:22.271Z,22.73
2023-04-17T14:35:44.399Z,22.13
2023-04-17T14:37:06.517Z,21.30
2023-04-17T14:38:28.712Z,23.60
2023-04-17T14:39:50.771Z,28.27
2023-04-17T14:41:12.958Z,19.57
2023-04-17T14:42:43.760Z,26.67
2023-04-17T14:44:13.533Z,23.10
2023-04-17T14:45:36.716Z,28.63
2023-04-17T14:46:58.958Z,21.07
2023-04-17T14:48:21.168Z,20.73
2023-04-17T14:49:43.379Z,24.60
2023-04-17T14:51:05.935Z,23.00
2023-04-17T14:52:28.194Z,17.93
2023-04-17T14:53:52.907Z,19.77
2023-04-17T14:55:15.527Z,17.93
2023-04-17T14:56:37.673Z,24.10
2023-04-17T14:57:59.833Z,20.63
2023-04-17T14:59:21.949Z,29.53
2023-04-17T15:00:44.252Z,24.90
2023-04-17T15:02:09.232Z,21.67
2023-04-17T15:03:32.270Z,23.40
2023-04-17T15:04:55.336Z,18.50
2023-04-17T15:06:18.938Z,20.37
2023-04-17T15:07:41.073Z,26.07
2023-04-17T15:09:03.193Z,22.87
2023-04-17T15:10:26.586Z,26.80
2023-04-17T15:11:48.859Z,31.47
2023-04-17T15:13:11.035Z,24.80
2023-04-17T15:14:33.133Z,18.47
2023-04-17T15:15:55.584Z,30.70
2023-04-17T15:17:17.725Z,28.77
2023-04-17T15:18:39.874Z,23.00
2023-04-17T15:20:02.089Z,21.93
2023-04-17T15:21:24.225Z,33.93
2023-04-17T15:22:52.301Z,27.73
2023-04-17T15:24:14.449Z,27.70
2023-04-17T15:25:37.021Z,38.20
2023-04-17T15:26:59.161Z,26.33
2023-04-17T15:28:21.705Z,30.70
2023-04-17T15:29:44.611Z,26.97
2023-04-17T15:31:07.066Z,28.63
2023-04-17T15:32:30.157Z,25.63
2023-04-17T15:33:52.304Z,29.67
2023-04-17T15:35:14.345Z,28.17
2023-04-17T15:36:36.392Z,27.63
2023-04-17T15:37:58.511Z,24.13
2023-04-17T15:39:20.574Z,28.93
2023-04-17T15:40:42.621Z,29.80
2023-04-17T15:42:08.534Z,31.30
2023-04-17T15:43:31.027Z,24.33
2023-04-17T15:44:55.339Z,22.33
2023-04-17T15:46:17.575Z,25.77
2023-04-17T15:47:39.901Z,27.73
2023-04-17T15:49:08.711Z,25.33
2023-04-17T15:50:31.422Z,23.20
2023-04-17T15:51:53.868Z,28.33
2023-04-17T15:53:16.030Z,23.90
2023-04-17T15:54:38.065Z,29.40
2023-04-17T15:56:00.616Z,26.10
2023-04-17T15:57:23.332Z,24.10
2023-04-17T15:58:45.472Z,25.33
2023-04-17T16:00:08.148Z,26.60
2023-04-17T16:01:30.462Z,23.47
2023-04-17T16:02:52.927Z,25.53
2023-04-17T16:04:15.460Z,24.23
2023-04-17T16:05:37.782Z,26.00
2023-04-17T16:06:59.908Z,31.83
2023-04-17T16:08:22.011Z,26.23
2023-04-17T16:09:47.945Z,29.80
2023-04-17T16:11:10.834Z,31.63
2023-04-17T16:12:32.883Z,25.87
2023-04-17T16:13:54.943Z,33.03
2023-04-17T16:15:17.785Z,31.93
2023-04-17T16:16:39.859Z,26.30
2023-04-17T16:18:01.989Z,24.57
2023-04-17T16:19:24.129Z,31.30
2023-04-17T16:20:46.413Z,25.50
2023-04-17T16:22:08.456Z,31.00
2023-04-17T16:23:30.558Z,25.93
2023-04-17T16:24:52.581Z,33.43
2023-04-17T16:26:15.192Z,28.30
2023-04-17T16:27:37.666Z,24.23
2023-04-17T16:28:59.852Z,29.47
2023-04-17T16:30:22.031Z,22.30
2023-04-17T16:31:44.212Z,26.60
2023-04-17T16:33:06.348Z,26.73
2023-04-17T16:34:28.614Z,25.43
2023-04-17T16:35:50.749Z,21.33
2023-04-17T16:37:14.783Z,32.97
2023-04-17T16:38:38.646Z,22.07
2023-04-17T16:40:04.658Z,25.57
2023-04-17T16:41:26.752Z,20.70
2023-04-17T16:42:48.849Z,32.10
2023-04-17T16:44:11.151Z,25.73
2023-04-17T16:45:33.374Z,23.60
2023-04-17T16:47:12.167Z,25.47
2023-04-17T16:48:35.860Z,30.80
2023-04-17T16:49:58.197Z,26.07
2023-04-17T16:51:20.771Z,28.03
2023-04-17T16:52:42.921Z,26.10
2023-04-17T16:54:05.143Z,22.20
2023-04-17T16:55:27.225Z,22.60
2023-04-17T16:56:49.353Z,33.90
2023-04-17T16:58:11.498Z,26.10
2023-04-17T16:59:33.536Z,27.50
2023-04-17T17:00:56.157Z,24.33
2023-04-17T17:02:18.265Z,29.80
2023-04-17T17:03:43.092Z,24.83
2023-04-17T17:05:06.107Z,26.07
2023-04-17T17:06:28.476Z,23.40
2023-04-17T17:07:50.613Z,28.30
2023-04-17T17:09:12.825Z,33.57
2023-04-17T17:10:35.238Z,25.83
2023-04-17T17:11:57.395Z,32.37
2023-04-17T17:13:19.448Z,24.83
2023-04-17T17:14:41.552Z,21.33
2023-04-17T17:16:03.669Z,25.97
2023-04-17T17:17:25.795Z,35.27
2023-04-17T17:18:48.580Z,30.53
2023-04-17T17:20:11.458Z,28.57
2023-04-17T17:21:33.552Z,34.93
2023-04-17T17:22:55.757Z,34.23
2023-04-17T17:24:17.821Z,29.10
2023-04-17T17:25:39.895Z,27.17
2023-04-17T17:27:02.774Z,29.60
2023-04-17T17:28:24.981Z,34.80
2023-04-17T17:29:47.060Z,29.83
2023-04-17T17:31:09.144Z,24.77
2023-04-17T17:32:31.231Z,31.77
2023-04-17T17:33:54.972Z,28.07
2023-04-17T17:35:17.114Z,30.20
2023-04-17T17:36:39.169Z,30.20
2023-04-17T17:38:01.444Z,36.00
2023-04-17T17:39:23.564Z,30.60
2023-04-17T17:40:45.678Z,25.20
2023-04-17T17:42:09.459Z,33.83
2023-04-17T17:43:31.575Z,36.03
2023-04-17T17:44:53.810Z,31.13
2023-04-17T17:46:16.088Z,31.13
2023-04-17T17:47:39.819Z,29.13
2023-04-17T17:49:01.934Z,28.40
2023-04-17T17:50:24.070Z,28.07
2023-04-17T17:51:46.182Z,29.43
2023-04-17T17:53:08.759Z,29.07
2023-04-17T17:54:36.223Z,30.27
2023-04-17T17:55:58.360Z,28.23
2023-04-17T17:57:20.544Z,31.77